Latest Weather Observations for Strahan

IDT60801

Issued at 11:31 pm EST Saturday 1 August 2015 (issued every 30 minutes, with the page automatically refreshed every 10 minutes)

About weather observations | Map of weather stations | Latest weather observations for TAS | Other Formats
Station Details ID: 097072 Name: STRAHAN AERODROME Lat: -42.16 Lon: 145.29 Height: 21.0 m
Data from the previous 72 hours. | See also: Recent months at Strahan
Date/Time
EST
Temp
°C
App
Temp
°C
Dew
Point
Rel
Hum
%
Delta-T
°C
Wind Press
QNH
hPa
Press
MSL
hPa
Rain
since 9 am
mm
Dir
 
Spd
km/h
Gust
km/h
Spd
kts
Gust
kts
01/11:30pm 9.1 1.5 4.1 71 2.2 NW 33 44 18 24 1007.9 1008.0 3.4
01/11:00pm 8.7 0.4 4.3 74 1.9 NW 37 50 20 27 1008.3 1008.4 3.4
01/10:32pm 8.3 -0.4 3.9 74 1.9 NW 39 59 21 32 1008.6 1008.7 3.4
01/10:30pm 8.4 0.0 3.8 73 2.0 NW 37 54 20 29 1008.7 1008.8 3.4
01/10:09pm 8.7 0.7 3.9 72 2.1 NW 35 54 19 29 1008.8 1008.9 3.4
01/10:00pm 8.7 0.3 3.5 70 2.2 NW 37 54 20 29 1008.8 1008.9 3.4
01/09:32pm 7.8 -1.0 3.5 74 1.8 NW 39 57 21 31 1009.0 1009.1 3.4
01/09:30pm 7.9 -1.3 3.6 74 1.8 NW 41 57 22 31 1009.0 1009.1 3.4
01/09:00pm 7.9 0.5 4.1 77 1.7 NW 32 43 17 23 1009.0 1009.1 3.4
01/08:30pm 7.3 0.3 3.9 79 1.5 NW 30 44 16 24 1009.1 1009.2 3.4
01/08:27pm 7.2 0.5 3.8 79 1.5 NW 28 41 15 22 1009.1 1009.2 3.4
01/08:10pm 6.5 -0.9 4.2 85 1.0 NW 32 46 17 25 1009.6 1009.7 3.2
01/08:01pm 7.1 -1.3 3.7 79 1.4 WNW 37 50 20 27 1009.2 1009.3 2.8
01/08:00pm 7.0 -1.1 3.4 78 1.5 WNW 35 50 19 27 1009.2 1009.3 2.8
01/07:45pm 6.9 -2.9 3.2 77 1.6 WNW 44 65 24 35 1009.3 1009.4 2.6
01/07:34pm 8.9 1.0 2.0 62 2.9 NW 33 52 18 28 1009.0 1009.1 2.4
01/07:30pm 8.9 1.2 3.3 68 2.4 NW 33 46 18 25 1009.0 1009.1 2.4
01/07:18pm 8.5 1.6 2.7 67 2.4 NW 28 46 15 25 1009.0 1009.1 2.4
01/07:00pm 8.3 1.6 3.8 73 1.9 WNW 28 39 15 21 1008.8 1008.9 2.4
01/06:30pm 8.2 0.4 2.7 68 2.3 WNW 33 50 18 27 1008.6 1008.7 2.4
01/06:21pm 8.3 0.9 2.1 65 2.6 NW 30 50 16 27 1008.4 1008.5 2.4
01/06:00pm 8.0 0.2 2.7 69 2.2 NW 33 44 18 24 1008.2 1008.3 2.4
01/05:30pm 7.3 1.2 2.6 72 2.0 NW 24 39 13 21 1008.3 1008.4 2.4
01/05:13pm 6.9 0.2 3.5 79 1.4 NW 28 48 15 26 1008.0 1008.1 2.4
01/05:00pm 6.6 0.9 2.7 76 1.6 NNW 22 33 12 18 1007.9 1008.0 2.4
01/04:37pm 6.8 1.9 4.3 84 1.1 NNW 19 39 10 21 1008.0 1008.1 2.4
01/04:30pm 6.4 2.7 4.4 87 0.9 NNW 13 19 7 10 1007.9 1008.0 2.4
01/04:23pm 6.3 2.5 4.0 85 1.0 NW 13 20 7 11 1007.7 1007.8 2.4
01/04:11pm 6.4 -1.2 3.7 83 1.1 WNW 33 59 18 32 1007.8 1007.9 2.4
01/04:05pm 6.5 -2.8 2.9 78 1.5 W 41 59 22 32 1008.1 1008.2 2.4
01/04:00pm 7.4 -0.6 3.6 77 1.6 WNW 35 57 19 31 1007.9 1008.0 2.2
01/03:56pm 8.0 0.1 2.5 68 2.3 WNW 33 57 18 31 1007.9 1008.0 2.2
01/03:30pm 9.6 2.6 1.8 58 3.3 WNW 28 41 15 22 1007.7 1007.8 2.2
01/03:00pm 9.3 1.7 2.6 63 2.9 WNW 32 46 17 25 1007.6 1007.7 2.2
01/02:30pm 8.3 0.6 2.3 66 2.5 WNW 32 46 17 25 1007.3 1007.4 2.2
01/02:00pm 6.0 -1.8 1.5 73 1.8 W 32 57 17 31 1007.1 1007.2 1.6
01/01:57pm 8.5 1.2 2.3 65 2.6 W 30 57 16 31 1007.1 1007.2 0.8
01/01:30pm 8.8 -0.3 1.9 62 2.9 W 39 54 21 29 1006.9 1007.0 0.8
01/01:20pm 9.5 1.7 2.8 63 2.9 W 33 44 18 24 1007.0 1007.1 0.8
01/01:00pm 9.2 1.8 1.9 60 3.1 WNW 30 39 16 21 1007.0 1007.1 0.8
01/12:30pm 9.8 2.3 1.5 56 3.4 WNW 30 41 16 22 1007.0 1007.1 0.8
01/12:00pm 9.9 2.1 2.7 61 3.1 W 33 43 18 23 1006.9 1007.0 0.8
01/11:30am 9.5 1.1 1.7 58 3.2 W 35 52 19 28 1006.7 1006.8 0.8
01/11:00am 8.8 1.4 1.9 62 2.9 W 30 44 16 24 1006.7 1006.8 0.8
01/10:30am 7.1 -0.6 2.4 72 1.9 WNW 32 56 17 30 1006.6 1006.7 0.6
01/10:00am 7.8 -0.5 2.1 67 2.4 W 35 50 19 27 1006.0 1006.1 0.4
01/09:40am 7.5 0.4 1.6 66 2.4 WNW 28 46 15 25 1005.7 1005.8 0.4
01/09:30am 6.8 0.7 2.7 75 1.7 WNW 24 35 13 19 1005.5 1005.6 0.4
01/09:29am 6.7 0.6 3.0 77 1.5 WNW 24 35 13 19 1005.5 1005.6 0.4
01/09:14am 5.4 -5.4 1.7 77 1.5 W 48 70 26 38 1005.4 1005.5 0.4
01/09:07am 7.5 -2.1 1.4 65 2.5 W 41 70 22 38 1005.0 1005.1 0.0
01/09:00am 7.6 -0.6 0.1 59 3.0 W 33 52 18 28 1004.6 1004.7 25.0
01/08:30am 7.7 -1.2 0.9 62 2.7 W 37 52 20 28 1004.1 1004.2 25.0
01/08:00am 6.8 -1.3 0.7 65 2.4 W 33 50 18 27 1003.6 1003.7 25.0
01/07:30am 6.8 -2.0 1.3 68 2.2 W 37 50 20 27 1003.0 1003.1 25.0
01/07:00am 6.5 -1.0 3.3 80 1.4 W 32 46 17 25 1002.5 1002.6 25.0
01/06:44am 6.5 -1.0 3.3 80 1.3 W 32 52 17 28 1002.4 1002.5 25.0
01/06:42am 6.4 -0.7 3.6 82 1.2 W 30 43 16 23 1002.3 1002.4 25.0
01/06:30am 6.4 -2.7 4.2 86 0.9 WSW 41 70 22 38 1002.1 1002.2 25.0
01/06:23am 5.8 -4.3 3.5 85 1.0 W 46 70 25 38 1002.1 1002.2 25.0
01/06:22am 5.9 -3.9 3.6 85 1.0 W 44 70 24 38 1002.1 1002.2 25.0
01/06:17am 7.1 -0.5 3.7 79 1.4 W 33 65 18 35 1001.8 1001.9 24.8
01/06:00am 7.3 0.7 4.4 82 1.3 W 28 39 15 21 1001.4 1001.5 24.8
01/05:34am 7.7 -0.5 4.8 82 1.3 W 37 61 20 33 1000.8 1000.9 24.8
01/05:31am 7.7 -0.6 4.3 79 1.5 W 37 52 20 28 1000.7 1000.8 24.8
01/05:30am 7.6 -0.3 4.4 80 1.4 W 35 52 19 28 1000.7 1000.8 24.8
01/05:14am 7.4 -1.6 4.7 83 1.2 W 41 54 22 29 1000.2 1000.3 24.6
01/05:00am 8.1 0.8 5.4 83 1.2 W 33 48 18 26 1000.0 1000.1 24.4
01/04:56am 8.2 1.0 5.8 85 1.1 W 33 48 18 26 999.9 1000.0 24.4
01/04:34am 7.8 -1.0 5.6 86 1.0 WNW 41 59 22 32 999.7 999.7 24.0
01/04:30am 8.1 0.2 6.1 87 0.9 WNW 37 48 20 26 999.6 999.6 24.0
01/04:20am 8.1 0.7 6.7 91 0.6 W 35 54 19 29 999.7 999.7 23.8
01/04:13am 8.0 -0.6 6.6 91 0.6 W 41 56 22 30 999.8 999.9 23.6
01/04:00am 8.5 0.8 7.0 90 0.7 WNW 37 52 20 28 999.5 999.5 22.8
01/03:30am 8.4 -0.6 7.2 92 0.6 WNW 44 63 24 34 999.2 999.2 21.4
01/03:29am 8.3 -1.2 6.9 91 0.7 WNW 46 63 25 34 999.3 999.3 21.4
01/03:22am 9.2 0.3 7.6 90 0.8 NW 44 65 24 35 998.9 998.9 20.6
01/03:05am 8.4 0.7 7.3 93 0.5 NNW 37 57 20 31 999.3 999.3 19.4
01/03:00am 8.2 0.5 7.1 93 0.5 NNW 37 50 20 27 999.4 999.4 18.6
01/02:56am 8.2 0.5 7.1 93 0.5 NNW 37 50 20 27 999.2 999.2 18.0
01/02:41am 8.2 0.5 7.1 93 0.5 NW 37 57 20 31 999.9 1000.0 16.2
01/02:36am 8.1 1.3 7.0 93 0.5 NNW 32 52 17 28 999.9 1000.0 14.6
01/02:33am 7.6 1.1 6.5 93 0.5 N 30 50 16 27 1000.0 1000.1 13.2
01/02:30am 7.4 1.2 6.2 92 0.5 N 28 39 15 21 999.7 999.7 12.0
01/02:09am 7.5 -0.1 6.0 90 0.7 N 35 48 19 26 999.5 999.5 9.6
01/02:00am 7.4 0.4 5.9 90 0.7 N 32 44 17 24 999.6 999.6 9.0
01/01:33am 7.4 0.1 5.5 88 0.8 N 33 52 18 28 1000.0 1000.1 8.0
01/01:30am 7.5 -0.1 5.6 88 0.9 N 35 52 19 28 1000.1 1000.2 7.8
01/01:00am 7.5 -0.5 5.6 88 0.9 N 37 61 20 33 1000.9 1001.0 7.6
01/12:33am 7.7 -1.2 5.3 85 1.1 N 41 61 22 33 1001.4 1001.5 7.0
01/12:30am 7.6 -1.6 5.4 86 1.0 N 43 56 23 30 1001.3 1001.4 7.0
01/12:00am 7.8 -0.7 5.3 84 1.1 N 39 57 21 31 1002.0 1002.1 6.6
 
Date/Time
EST
Temp
°C
App
Temp
°C
Dew
Point
Rel
Hum
%
Delta-T
°C
Wind Press
QNH
hPa
Press
MSL
hPa
Rain
since 9 am
mm
Dir
 
Spd
km/h
Gust
km/h
Spd
kts
Gust
kts
31/11:30pm 8.0 -0.2 4.9 81 1.4 N 37 56 20 30 1002.9 1003.0 6.4
31/11:18pm 8.1 0.3 5.0 81 1.4 N 35 54 19 29 1003.1 1003.2 6.4
31/11:00pm 8.1 0.1 5.6 84 1.1 N 37 54 20 29 1003.7 1003.8 6.4
31/10:31pm 8.0 0.8 6.0 87 0.9 N 33 54 18 29 1004.5 1004.6 6.2
31/10:30pm 8.0 1.0 6.0 87 0.9 N 32 46 17 25 1004.5 1004.6 6.2
31/10:05pm 7.7 1.5 6.0 89 0.8 N 28 46 15 25 1005.1 1005.2 6.0
31/10:00pm 7.7 1.5 6.0 89 0.8 N 28 37 15 20 1005.3 1005.4 6.0
31/09:30pm 8.2 1.4 5.3 82 1.3 N 30 43 16 23 1006.0 1006.1 5.4
31/09:00pm 8.0 1.6 5.3 83 1.2 N 28 41 15 22 1006.7 1006.8 5.4
31/08:30pm 7.8 1.4 5.1 83 1.2 N 28 41 15 22 1006.9 1007.0 5.4
31/08:00pm 7.7 1.3 5.0 83 1.2 N 28 37 15 20 1008.0 1008.1 5.4
31/07:30pm 7.7 1.3 5.2 84 1.1 N 28 41 15 22 1008.7 1008.8 5.4
31/07:00pm 7.3 1.3 5.3 87 0.9 N 26 37 14 20 1009.1 1009.2 5.4
31/06:30pm 7.2 0.8 5.3 88 0.8 N 28 37 15 20 1009.1 1009.2 5.4
31/06:17pm 7.3 0.9 5.4 88 0.8 N 28 46 15 25 1009.3 1009.4 5.4
31/06:00pm 7.1 1.2 5.6 90 0.7 N 26 33 14 18 1009.6 1009.7 5.4
31/05:51pm 7.1 1.2 5.6 90 0.7 N 26 35 14 19 1009.6 1009.7 5.4
31/05:39pm 7.3 0.7 5.9 91 0.6 N 30 43 16 23 1009.9 1010.0 5.2
31/05:30pm 7.2 1.7 5.8 91 0.6 N 24 33 13 18 1010.1 1010.2 4.8
31/05:29pm 7.2 1.7 5.8 91 0.6 N 24 33 13 18 1010.1 1010.2 4.8
31/05:16pm 7.5 1.3 6.3 92 0.5 NNW 28 46 15 25 1010.0 1010.1 4.8
31/05:06pm 7.5 2.0 6.1 91 0.6 N 24 33 13 18 1010.3 1010.4 4.4
31/05:00pm 7.5 2.0 6.1 91 0.6 N 24 33 13 18 1010.0 1010.1 4.0
31/04:58pm 7.5 2.0 6.1 91 0.6 N 24 35 13 19 1010.0 1010.1 4.0
31/04:52pm 7.6 1.8 6.1 90 0.7 NNW 26 35 14 19 1010.2 1010.3 4.0
31/04:36pm 7.7 1.9 6.3 91 0.6 NNW 26 39 14 21 1010.5 1010.6 3.8
31/04:30pm 8.0 1.5 6.6 91 0.6 NNW 30 48 16 26 1010.5 1010.6 2.8
31/04:23pm 8.1 1.6 6.7 91 0.6 NNW 30 48 16 26 1010.3 1010.4 2.6
31/04:02pm 7.9 2.3 5.4 84 1.1 N 24 37 13 20 1010.5 1010.6 1.2
31/04:00pm 8.0 2.8 5.5 84 1.1 N 22 33 12 18 1010.5 1010.6 1.2
31/03:30pm 9.0 2.3 5.4 78 1.6 N 30 43 16 23 1010.9 1011.0 1.0
31/03:00pm 9.2 2.7 6.3 82 1.3 NNW 30 50 16 27 1011.2 1011.3 0.8
31/02:59pm 9.1 2.4 5.7 79 1.5 NNW 30 50 16 27 1011.2 1011.3 0.8
31/02:30pm 9.4 2.2 5.2 75 1.9 NNW 32 48 17 26 1011.7 1011.8 0.8
31/02:10pm 9.8 1.9 4.4 69 2.4 NW 35 54 19 29 1011.7 1011.8 0.6
31/02:00pm 9.3 2.1 5.1 75 1.9 NW 32 44 17 24 1011.9 1012.0 0.6
31/01:30pm 10.0 2.1 4.6 69 2.4 NNW 35 46 19 25 1012.3 1012.4 0.6
31/01:00pm 9.4 2.7 5.6 77 1.7 NW 30 46 16 25 1012.9 1013.0 0.6
31/12:38pm 8.3 2.0 5.6 83 1.2 NW 28 48 15 26 1013.4 1013.5 0.6
31/12:30pm 8.3 2.0 5.6 83 1.2 NW 28 43 15 23 1013.5 1013.6 0.4
31/12:28pm 8.5 3.0 5.8 83 1.2 NW 24 35 13 19 1013.5 1013.6 0.4
31/12:14pm 7.7 0.0 5.2 84 1.1 NW 35 57 19 31 1014.0 1014.1 0.4
31/12:08pm 9.2 1.7 4.2 71 2.2 NW 33 57 18 31 1013.9 1014.0 0.2
31/12:00pm 10.4 3.7 5.8 73 2.1 NNW 30 41 16 22 1013.9 1014.0 0.2
31/11:30am 8.0 0.5 4.6 79 1.5 WNW 33 44 18 24 1014.4 1014.5 0.2
31/11:00am 8.6 2.9 4.8 77 1.7 NW 24 30 13 16 1014.6 1014.7 0.2
31/10:43am 8.7 3.3 6.2 84 1.1 NW 24 33 13 18 1014.6 1014.7 0.2
31/10:30am 7.3 0.0 4.4 82 1.3 NW 32 56 17 30 1014.7 1014.8 0.2
31/10:28am 7.4 0.0 4.0 79 1.5 NW 32 56 17 30 1014.7 1014.8 0.2
31/10:25am 8.3 1.6 3.9 74 1.9 NW 28 56 15 30 1014.7 1014.8 0.0
31/10:00am 9.0 2.7 3.6 69 2.3 NW 26 35 14 19 1014.6 1014.7 0.0
31/09:30am 7.9 3.7 3.6 74 1.8 NNW 15 28 8 15 1014.8 1014.9 0.0
31/09:00am 7.1 3.5 5.1 87 0.9 NW 13 19 7 10 1015.1 1015.2 14.0
31/08:30am 7.5 2.2 3.0 73 1.9 W 20 30 11 16 1014.9 1015.0 13.8
31/08:00am 6.9 2.3 3.5 79 1.4 W 17 24 9 13 1015.0 1015.1 13.8
31/07:30am 6.7 1.4 3.1 78 1.5 NW 20 32 11 17 1014.8 1014.9 13.8
31/07:08am 7.3 2.8 4.4 82 1.3 NW 17 37 9 20 1014.6 1014.7 13.8
31/07:00am 5.6 2.1 3.3 85 1.0 NNW 11 15 6 8 1014.5 1014.6 13.8
31/06:30am 5.8 1.1 3.0 82 1.2 NW 17 20 9 11 1014.4 1014.5 13.8
31/06:00am 5.3 1.0 3.5 88 0.7 NW 15 28 8 15 1014.3 1014.4 13.8
31/05:30am 4.2 0.8 2.1 86 0.8 NNW 9 11 5 6 1014.1 1014.2 13.8
31/05:00am 5.7 0.4 2.0 77 1.5 NW 19 24 10 13 1014.0 1014.1 13.6
31/04:30am 5.7 1.4 0.7 70 2.0 WNW 13 17 7 9 1013.9 1014.0 13.6
31/04:00am 5.7 0.9 0.5 69 2.0 WSW 15 20 8 11 1013.7 1013.8 13.6
31/03:30am 6.4 1.6 2.5 76 1.6 SW 17 37 9 20 1013.9 1014.0 13.6
31/03:00am 6.4 1.0 2.3 75 1.7 WNW 20 28 11 15 1013.7 1013.8 13.6
31/02:41am 6.3 1.0 2.8 78 1.4 W 20 41 11 22 1013.8 1013.9 13.6
31/02:30am 4.9 1.5 1.6 79 1.3 W 9 13 5 7 1013.6 1013.7 13.6
31/02:00am 4.8 1.3 1.3 78 1.4 SW 9 15 5 8 1013.2 1013.3 13.6
31/01:30am 5.9 0.4 1.8 75 1.6 SW 20 32 11 17 1013.1 1013.2 13.6
31/01:00am 6.3 0.9 1.0 69 2.1 W 19 24 10 13 1012.9 1013.0 13.6
31/12:30am 6.1 0.5 1.2 71 1.9 WSW 20 32 11 17 1012.7 1012.8 13.6
31/12:00am 5.2 1.5 2.4 82 1.1 WSW 11 28 6 15 1012.3 1012.4 13.6
 
Date/Time
EST
Temp
°C
App
Temp
°C
Dew
Point
Rel
Hum
%
Delta-T
°C
Wind Press
QNH
hPa
Press
MSL
hPa
Rain
since 9 am
mm
Dir
 
Spd
km/h
Gust
km/h
Spd
kts
Gust
kts
30/11:32pm 6.5 -0.4 2.8 77 1.5 WSW 28 56 15 30 1012.0 1012.1 13.4
30/11:30pm 6.7 0.5 2.4 74 1.8 WSW 24 56 13 30 1011.9 1012.0 13.4
30/11:00pm 6.4 0.6 2.1 74 1.8 SW 22 35 12 19 1011.3 1011.4 13.4
30/10:30pm 7.0 -0.3 2.7 74 1.8 WSW 30 41 16 22 1010.8 1010.9 13.4
30/10:00pm 7.2 0.1 3.6 78 1.5 WSW 30 46 16 25 1010.2 1010.3 13.4
30/09:59pm 7.1 0.4 3.9 80 1.4 SW 28 46 15 25 1010.1 1010.2 13.4
30/09:30pm 6.9 0.9 3.3 78 1.5 SW 24 35 13 19 1009.4 1009.5 13.4
30/09:00pm 7.0 0.8 4.1 82 1.3 SW 26 39 14 21 1008.7 1008.8 13.4
30/08:30pm 6.6 0.2 3.4 80 1.3 SSW 26 41 14 22 1008.1 1008.2 13.2
30/08:00pm 7.3 -1.1 3.9 79 1.5 SW 37 46 20 25 1007.0 1007.1 13.2
30/07:49pm 7.9 1.2 5.5 85 1.1 SW 30 39 16 21 1006.6 1006.7 13.2
30/07:35pm 7.9 1.7 6.0 88 0.9 SW 28 46 15 25 1006.0 1006.1 13.2
30/07:30pm 8.2 1.2 6.2 87 0.9 SW 32 46 17 25 1005.3 1005.4 13.0
30/07:06pm 8.7 2.0 7.2 90 0.7 W 32 50 17 27 1004.5 1004.6 12.4
30/07:00pm 8.7 1.8 7.3 91 0.7 WNW 33 50 18 27 1004.4 1004.5 12.4
30/06:45pm 8.2 1.6 6.2 87 0.9 NW 30 41 16 22 1003.7 1003.8 11.8
30/06:30pm 8.4 2.7 6.5 88 0.9 NW 26 35 14 19 1003.6 1003.7 11.0
30/06:18pm 8.2 3.2 6.5 89 0.8 NW 22 35 12 19 1003.5 1003.6 11.0
30/06:16pm 8.3 3.0 6.6 89 0.8 NW 24 35 13 19 1003.4 1003.5 11.0
30/06:00pm 8.3 2.3 7.2 93 0.5 W 28 43 15 23 1003.7 1003.8 10.6
30/05:50pm 7.9 3.6 7.0 94 0.4 NW 19 30 10 16 1003.1 1003.2 10.2
30/05:46pm 7.7 2.8 6.8 94 0.4 NW 22 33 12 18 1002.9 1003.0 9.8
30/05:30pm 7.4 1.2 6.2 92 0.5 WNW 28 44 15 24 1002.9 1003.0 8.0
30/05:17pm 7.1 -2.1 5.6 90 0.7 WNW 43 63 23 34 1002.7 1002.8 6.0
30/05:13pm 9.3 0.7 8.1 92 0.6 NNW 43 59 23 32 1002.4 1002.5 3.2
30/05:12pm 9.3 0.7 8.1 92 0.6 NNW 43 57 23 31 1002.0 1002.1 3.2
30/05:00pm 9.0 1.0 7.6 91 0.7 N 39 50 21 27 1000.5 1000.6 2.8
30/04:50pm 8.9 1.6 7.4 90 0.7 N 35 50 19 27 1000.7 1000.8 2.6
30/04:30pm 8.7 2.0 7.3 91 0.7 N 32 46 17 25 1001.1 1001.2 2.2
30/04:11pm 8.6 1.8 7.1 90 0.7 N 32 50 17 27 1001.2 1001.3 1.8
30/04:00pm 8.7 1.7 7.0 89 0.8 N 33 44 18 24 1001.4 1001.5 1.4
30/03:30pm 8.9 2.1 6.9 87 0.9 N 32 50 17 27 1002.1 1002.2 0.8
30/03:13pm 9.0 2.1 6.6 85 1.1 N 32 50 17 27 1002.5 1002.6 0.8
30/03:00pm 9.1 2.2 6.4 83 1.3 N 32 46 17 25 1002.7 1002.8 0.6
30/02:30pm 9.3 2.2 6.6 83 1.3 N 33 52 18 28 1003.0 1003.1 0.6
30/02:02pm 9.4 1.9 6.5 82 1.3 N 35 54 19 29 1003.7 1003.8 0.4
30/02:00pm 9.3 1.8 6.4 82 1.3 N 35 52 19 28 1003.7 1003.8 0.4
30/01:30pm 9.4 1.2 6.5 82 1.3 N 39 69 21 37 1004.2 1004.3 0.2
30/01:00pm 10.9 2.5 5.4 69 2.5 N 39 67 21 36 1004.6 1004.7 0.0
30/12:30pm 11.1 1.9 5.4 68 2.6 N 43 63 23 34 1005.7 1005.8 0.0
30/12:00pm 11.2 1.8 5.3 67 2.7 N 44 69 24 37 1006.8 1006.9 0.0
30/11:30am 11.2 3.1 5.1 66 2.8 N 37 57 20 31 1007.3 1007.4 0.0
30/11:00am 10.9 2.4 5.2 68 2.6 N 39 61 21 33 1008.6 1008.7 0.0
30/10:34am 11.3 2.9 5.4 67 2.7 N 39 57 21 31 1009.1 1009.2 0.0
30/10:30am 11.2 2.8 5.5 68 2.6 N 39 56 21 30 1009.2 1009.3 0.0
30/10:07am 10.8 2.8 5.6 70 2.4 N 37 56 20 30 1009.9 1010.0 0.0
30/10:00am 10.7 2.2 5.3 69 2.5 N 39 56 21 30 1010.0 1010.1 0.0
30/09:30am 10.3 1.8 5.1 70 2.4 N 39 63 21 34 1010.8 1010.9 0.0
30/09:00am 10.1 2.0 5.1 71 2.3 N 37 61 20 33 1011.6 1011.7 7.2
30/08:30am 9.9 2.5 5.1 72 2.2 N 33 57 18 31 1012.1 1012.2 7.2
30/08:06am 9.7 2.6 5.3 74 2.0 N 32 50 17 27 1012.3 1012.4 7.2
30/08:00am 9.8 2.5 5.4 74 2.0 N 33 50 18 27 1012.5 1012.6 7.2
30/07:40am 9.7 2.9 5.3 74 2.0 N 30 50 16 27 1012.7 1012.8 7.2
30/07:30am 9.6 2.4 5.2 74 2.0 N 32 44 17 24 1012.9 1013.0 7.2
30/07:18am 9.6 3.2 5.4 75 1.9 N 28 46 15 25 1013.0 1013.1 7.2
30/07:00am 9.6 2.8 5.2 74 2.0 N 30 43 16 23 1013.2 1013.3 7.2
30/06:36am 9.6 3.2 5.0 73 2.1 N 28 50 15 27 1013.5 1013.6 7.2
30/06:30am 9.5 3.5 5.1 74 2.0 N 26 37 14 20 1013.6 1013.7 7.2
30/06:06am 9.5 3.0 4.9 73 2.1 N 28 46 15 25 1014.0 1014.1 7.2
30/06:00am 9.6 2.7 4.8 72 2.1 N 30 41 16 22 1014.2 1014.3 7.2
30/05:30am 9.7 2.9 5.3 74 2.0 N 30 43 16 23 1014.7 1014.8 7.2
30/05:00am 9.7 3.0 5.5 75 1.9 N 30 46 16 25 1015.4 1015.5 7.2
30/04:58am 9.6 3.2 5.4 75 1.9 N 28 46 15 25 1015.5 1015.6 7.2
30/04:30am 9.5 2.8 5.7 77 1.7 N 30 46 16 25 1015.9 1015.9 7.2
30/04:13am 9.5 3.2 5.9 78 1.7 N 28 46 15 25 1016.2 1016.2 7.2
30/04:00am 9.5 2.9 5.9 78 1.6 N 30 44 16 24 1016.4 1016.4 7.2
30/03:30am 9.6 3.4 6.0 78 1.7 N 28 37 15 20 1016.8 1016.8 7.2
30/03:00am 9.5 4.0 6.0 79 1.6 N 24 35 13 19 1017.4 1017.4 7.2
30/02:42am 9.7 3.5 6.1 78 1.7 N 28 46 15 25 1017.9 1017.9 7.2
30/02:30am 9.6 3.4 6.1 79 1.6 N 28 41 15 22 1018.0 1018.0 7.2
30/02:00am 9.4 3.6 6.1 80 1.5 N 26 41 14 22 1018.2 1018.2 7.2
30/01:30am 9.5 4.1 6.4 81 1.4 N 24 41 13 22 1018.7 1018.7 7.2
30/01:00am 9.4 4.5 6.7 83 1.3 N 22 35 12 19 1019.0 1019.0 7.2
30/12:30am 9.4 4.8 6.7 83 1.3 N 20 30 11 16 1019.5 1019.5 7.2
30/12:00am 9.3 5.0 6.9 85 1.1 N 19 28 10 15 1020.0 1020.0 7.2

Other Formats:

Comma delimited format used in spreadsheet applications
http://www.bom.gov.au/fwo/IDT60801/IDT60801.94956.axf

JavaScript Object Notation format (JSON) in row-major order
http://www.bom.gov.au/fwo/IDT60801/IDT60801.94956.json